sensor_id;sensor_type;location;lat;lon;timestamp;P1;durP1;ratioP1;P2;durP2;ratioP2
11711;SDS011;5912;51.034;6.984;2023-04-24T00:00:30;0.88;;;0.52;;
11711;SDS011;5912;51.034;6.984;2023-04-24T00:02:56;0.50;;;0.50;;
11711;SDS011;5912;51.034;6.984;2023-04-24T00:05:22;0.80;;;0.60;;
11711;SDS011;5912;51.034;6.984;2023-04-24T00:07:48;0.47;;;0.47;;
11711;SDS011;5912;51.034;6.984;2023-04-24T00:10:17;0.63;;;0.63;;
11711;SDS011;5912;51.034;6.984;2023-04-24T00:12:43;0.68;;;0.50;;
11711;SDS011;5912;51.034;6.984;2023-04-24T00:15:08;0.40;;;0.40;;
11711;SDS011;5912;51.034;6.984;2023-04-24T00:17:34;1.02;;;0.50;;
11711;SDS011;5912;51.034;6.984;2023-04-24T00:19:59;2.13;;;0.50;;
11711;SDS011;5912;51.034;6.984;2023-04-24T00:22:25;0.90;;;0.43;;
11711;SDS011;5912;51.034;6.984;2023-04-24T00:24:51;0.70;;;0.70;;
11711;SDS011;5912;51.034;6.984;2023-04-24T00:27:16;1.40;;;0.73;;
11711;SDS011;5912;51.034;6.984;2023-04-24T00:29:42;0.50;;;0.50;;
11711;SDS011;5912;51.034;6.984;2023-04-24T00:32:07;0.68;;;0.60;;
11711;SDS011;5912;51.034;6.984;2023-04-24T00:34:32;0.68;;;0.60;;
11711;SDS011;5912;51.034;6.984;2023-04-24T00:36:58;0.70;;;0.60;;
11711;SDS011;5912;51.034;6.984;2023-04-24T00:39:23;1.00;;;0.70;;
11711;SDS011;5912;51.034;6.984;2023-04-24T00:41:48;0.60;;;0.60;;
11711;SDS011;5912;51.034;6.984;2023-04-24T00:44:15;1.10;;;0.70;;
11711;SDS011;5912;51.034;6.984;2023-04-24T00:46:41;1.17;;;0.60;;
11711;SDS011;5912;51.034;6.984;2023-04-24T00:49:07;0.88;;;0.70;;
11711;SDS011;5912;51.034;6.984;2023-04-24T00:51:32;0.57;;;0.57;;
11711;SDS011;5912;51.034;6.984;2023-04-24T00:53:59;0.60;;;0.60;;
11711;SDS011;5912;51.034;6.984;2023-04-24T00:56:25;0.60;;;0.60;;
11711;SDS011;5912;51.034;6.984;2023-04-24T00:58:50;0.73;;;0.73;;
11711;SDS011;5912;51.034;6.984;2023-04-24T01:01:16;1.13;;;0.60;;
11711;SDS011;5912;51.034;6.984;2023-04-24T01:03:43;1.60;;;0.75;;
11711;SDS011;5912;51.034;6.984;2023-04-24T01:06:08;2.03;;;0.70;;
11711;SDS011;5912;51.034;6.984;2023-04-24T01:08:35;0.80;;;0.80;;
11711;SDS011;5912;51.034;6.984;2023-04-24T01:11:01;0.85;;;0.60;;
11711;SDS011;5912;51.034;6.984;2023-04-24T01:13:28;2.10;;;0.65;;
11711;SDS011;5912;51.034;6.984;2023-04-24T01:15:54;1.40;;;0.82;;
11711;SDS011;5912;51.034;6.984;2023-04-24T01:18:19;0.50;;;0.50;;
11711;SDS011;5912;51.034;6.984;2023-04-24T01:20:46;0.93;;;0.80;;
11711;SDS011;5912;51.034;6.984;2023-04-24T01:23:12;0.98;;;0.70;;
11711;SDS011;5912;51.034;6.984;2023-04-24T01:25:38;1.00;;;0.90;;
11711;SDS011;5912;51.034;6.984;2023-04-24T01:28:04;0.68;;;0.65;;
11711;SDS011;5912;51.034;6.984;2023-04-24T01:30:29;1.20;;;1.10;;
11711;SDS011;5912;51.034;6.984;2023-04-24T01:32:56;2.45;;;1.10;;
11711;SDS011;5912;51.034;6.984;2023-04-24T01:38:32;3.17;;;0.85;;
11711;SDS011;5912;51.034;6.984;2023-04-24T01:40:58;1.23;;;1.00;;
11711;SDS011;5912;51.034;6.984;2023-04-24T01:43:24;1.08;;;0.98;;
11711;SDS011;5912;51.034;6.984;2023-04-24T01:45:50;1.00;;;1.00;;
11711;SDS011;5912;51.034;6.984;2023-04-24T01:48:15;1.77;;;1.33;;
11711;SDS011;5912;51.034;6.984;2023-04-24T01:50:40;2.72;;;1.55;;
11711;SDS011;5912;51.034;6.984;2023-04-24T01:53:05;2.80;;;1.73;;
11711;SDS011;5912;51.034;6.984;2023-04-24T01:55:31;1.83;;;1.40;;
11711;SDS011;5912;51.034;6.984;2023-04-24T01:57:56;2.97;;;1.60;;
11711;SDS011;5912;51.034;6.984;2023-04-24T02:00:22;2.05;;;1.55;;
11711;SDS011;5912;51.034;6.984;2023-04-24T02:02:49;1.95;;;1.55;;
11711;SDS011;5912;51.034;6.984;2023-04-24T02:05:14;1.55;;;1.38;;
11711;SDS011;5912;51.034;6.984;2023-04-24T02:07:40;1.67;;;1.38;;
11711;SDS011;5912;51.034;6.984;2023-04-24T02:10:05;2.30;;;1.42;;
11711;SDS011;5912;51.034;6.984;2023-04-24T02:12:31;2.33;;;1.80;;
11711;SDS011;5912;51.034;6.984;2023-04-24T02:14:56;3.70;;;2.22;;
11711;SDS011;5912;51.034;6.984;2023-04-24T02:17:37;2.92;;;2.50;;
11711;SDS011;5912;51.034;6.984;2023-04-24T02:20:03;3.42;;;2.33;;
11711;SDS011;5912;51.034;6.984;2023-04-24T02:22:29;3.67;;;2.92;;
11711;SDS011;5912;51.034;6.984;2023-04-24T02:24:55;3.10;;;2.72;;
11711;SDS011;5912;51.034;6.984;2023-04-24T02:27:20;3.47;;;2.88;;
11711;SDS011;5912;51.034;6.984;2023-04-24T02:29:45;4.05;;;3.05;;
11711;SDS011;5912;51.034;6.984;2023-04-24T02:32:11;4.15;;;3.10;;
11711;SDS011;5912;51.034;6.984;2023-04-24T02:34:37;5.00;;;3.55;;
11711;SDS011;5912;51.034;6.984;2023-04-24T02:37:02;3.53;;;3.22;;
11711;SDS011;5912;51.034;6.984;2023-04-24T02:39:27;5.20;;;4.03;;
11711;SDS011;5912;51.034;6.984;2023-04-24T02:41:53;5.13;;;3.78;;
11711;SDS011;5912;51.034;6.984;2023-04-24T02:44:18;7.40;;;3.90;;
11711;SDS011;5912;51.034;6.984;2023-04-24T02:46:43;6.78;;;3.55;;
11711;SDS011;5912;51.034;6.984;2023-04-24T02:49:09;5.47;;;3.97;;
11711;SDS011;5912;51.034;6.984;2023-04-24T02:51:36;4.93;;;3.85;;
11711;SDS011;5912;51.034;6.984;2023-04-24T02:54:05;4.70;;;3.50;;
11711;SDS011;5912;51.034;6.984;2023-04-24T02:56:30;3.95;;;3.53;;
11711;SDS011;5912;51.034;6.984;2023-04-24T02:58:56;4.18;;;3.70;;
11711;SDS011;5912;51.034;6.984;2023-04-24T03:01:21;4.97;;;3.70;;
11711;SDS011;5912;51.034;6.984;2023-04-24T03:03:46;3.58;;;3.28;;
11711;SDS011;5912;51.034;6.984;2023-04-24T03:06:12;6.82;;;3.65;;
11711;SDS011;5912;51.034;6.984;2023-04-24T03:08:37;5.60;;;3.55;;
11711;SDS011;5912;51.034;6.984;2023-04-24T03:11:02;4.57;;;3.67;;
11711;SDS011;5912;51.034;6.984;2023-04-24T03:13:27;4.13;;;3.72;;
11711;SDS011;5912;51.034;6.984;2023-04-24T03:15:53;5.38;;;3.90;;
11711;SDS011;5912;51.034;6.984;2023-04-24T03:18:19;5.45;;;3.83;;
11711;SDS011;5912;51.034;6.984;2023-04-24T03:20:47;5.43;;;3.47;;
11711;SDS011;5912;51.034;6.984;2023-04-24T03:23:12;4.65;;;3.63;;
11711;SDS011;5912;51.034;6.984;2023-04-24T03:25:38;4.30;;;3.50;;
11711;SDS011;5912;51.034;6.984;2023-04-24T03:28:03;5.03;;;4.47;;
11711;SDS011;5912;51.034;6.984;2023-04-24T03:30:29;4.72;;;3.95;;
11711;SDS011;5912;51.034;6.984;2023-04-24T03:32:54;6.68;;;4.22;;
11711;SDS011;5912;51.034;6.984;2023-04-24T03:35:20;6.70;;;4.43;;
11711;SDS011;5912;51.034;6.984;2023-04-24T03:37:46;5.03;;;3.97;;
11711;SDS011;5912;51.034;6.984;2023-04-24T03:40:12;5.57;;;4.60;;
11711;SDS011;5912;51.034;6.984;2023-04-24T03:42:37;7.32;;;4.25;;
11711;SDS011;5912;51.034;6.984;2023-04-24T03:45:03;4.75;;;4.20;;
11711;SDS011;5912;51.034;6.984;2023-04-24T03:47:28;6.90;;;5.38;;
11711;SDS011;5912;51.034;6.984;2023-04-24T03:49:53;7.07;;;4.45;;
11711;SDS011;5912;51.034;6.984;2023-04-24T03:52:20;5.97;;;4.65;;
11711;SDS011;5912;51.034;6.984;2023-04-24T03:54:46;7.65;;;4.03;;
11711;SDS011;5912;51.034;6.984;2023-04-24T03:57:11;5.32;;;4.57;;
11711;SDS011;5912;51.034;6.984;2023-04-24T03:59:36;7.30;;;4.40;;
11711;SDS011;5912;51.034;6.984;2023-04-24T04:02:02;5.20;;;3.78;;
11711;SDS011;5912;51.034;6.984;2023-04-24T04:04:27;5.13;;;4.28;;
11711;SDS011;5912;51.034;6.984;2023-04-24T04:06:52;5.55;;;4.10;;
11711;SDS011;5912;51.034;6.984;2023-04-24T04:09:18;5.97;;;4.18;;
11711;SDS011;5912;51.034;6.984;2023-04-24T04:11:43;6.13;;;4.45;;
11711;SDS011;5912;51.034;6.984;2023-04-24T04:14:08;5.78;;;4.82;;
11711;SDS011;5912;51.034;6.984;2023-04-24T04:16:34;7.32;;;4.82;;
11711;SDS011;5912;51.034;6.984;2023-04-24T04:19:01;5.18;;;3.65;;
11711;SDS011;5912;51.034;6.984;2023-04-24T04:21:27;9.98;;;4.82;;
11711;SDS011;5912;51.034;6.984;2023-04-24T04:23:53;5.00;;;4.25;;
11711;SDS011;5912;51.034;6.984;2023-04-24T04:26:18;4.30;;;3.88;;
11711;SDS011;5912;51.034;6.984;2023-04-24T04:28:46;5.35;;;3.90;;
11711;SDS011;5912;51.034;6.984;2023-04-24T04:31:12;5.85;;;4.38;;
11711;SDS011;5912;51.034;6.984;2023-04-24T04:33:38;6.97;;;4.35;;
11711;SDS011;5912;51.034;6.984;2023-04-24T04:36:04;5.43;;;4.35;;
11711;SDS011;5912;51.034;6.984;2023-04-24T04:41:32;5.45;;;4.28;;
11711;SDS011;5912;51.034;6.984;2023-04-24T04:44:00;5.43;;;3.85;;
11711;SDS011;5912;51.034;6.984;2023-04-24T04:46:27;5.55;;;4.28;;
11711;SDS011;5912;51.034;6.984;2023-04-24T04:48:57;4.72;;;3.80;;
11711;SDS011;5912;51.034;6.984;2023-04-24T04:51:22;6.72;;;4.60;;
11711;SDS011;5912;51.034;6.984;2023-04-24T04:53:47;5.20;;;3.80;;
11711;SDS011;5912;51.034;6.984;2023-04-24T04:56:12;5.93;;;4.25;;
11711;SDS011;5912;51.034;6.984;2023-04-24T04:58:38;7.38;;;4.22;;
11711;SDS011;5912;51.034;6.984;2023-04-24T05:01:03;6.45;;;3.90;;
11711;SDS011;5912;51.034;6.984;2023-04-24T05:03:28;5.55;;;3.90;;
11711;SDS011;5912;51.034;6.984;2023-04-24T05:05:54;4.88;;;4.03;;
11711;SDS011;5912;51.034;6.984;2023-04-24T05:08:19;4.68;;;3.72;;
11711;SDS011;5912;51.034;6.984;2023-04-24T05:10:44;5.80;;;3.78;;
11711;SDS011;5912;51.034;6.984;2023-04-24T05:13:10;6.95;;;3.72;;
11711;SDS011;5912;51.034;6.984;2023-04-24T05:15:35;4.57;;;3.60;;
11711;SDS011;5912;51.034;6.984;2023-04-24T05:18:00;6.03;;;4.13;;
11711;SDS011;5912;51.034;6.984;2023-04-24T05:20:25;6.07;;;3.80;;
11711;SDS011;5912;51.034;6.984;2023-04-24T05:22:51;4.47;;;3.50;;
11711;SDS011;5912;51.034;6.984;2023-04-24T05:25:16;5.70;;;3.58;;
11711;SDS011;5912;51.034;6.984;2023-04-24T05:27:41;5.38;;;3.70;;
11711;SDS011;5912;51.034;6.984;2023-04-24T05:30:07;5.45;;;3.70;;
11711;SDS011;5912;51.034;6.984;2023-04-24T05:32:33;6.60;;;3.60;;
11711;SDS011;5912;51.034;6.984;2023-04-24T05:34:58;6.30;;;4.10;;
11711;SDS011;5912;51.034;6.984;2023-04-24T05:37:23;4.35;;;3.70;;
11711;SDS011;5912;51.034;6.984;2023-04-24T05:39:49;4.25;;;3.22;;
11711;SDS011;5912;51.034;6.984;2023-04-24T05:42:14;6.32;;;3.65;;
11711;SDS011;5912;51.034;6.984;2023-04-24T05:44:39;5.28;;;3.80;;
11711;SDS011;5912;51.034;6.984;2023-04-24T05:47:04;5.10;;;3.22;;
11711;SDS011;5912;51.034;6.984;2023-04-24T05:49:30;4.53;;;4.00;;
11711;SDS011;5912;51.034;6.984;2023-04-24T05:51:55;4.30;;;3.83;;
11711;SDS011;5912;51.034;6.984;2023-04-24T05:54:21;4.60;;;3.08;;
11711;SDS011;5912;51.034;6.984;2023-04-24T05:56:47;5.68;;;3.75;;
11711;SDS011;5912;51.034;6.984;2023-04-24T05:59:12;4.80;;;3.63;;
11711;SDS011;5912;51.034;6.984;2023-04-24T06:01:37;4.40;;;3.60;;
11711;SDS011;5912;51.034;6.984;2023-04-24T06:04:03;5.25;;;3.47;;
11711;SDS011;5912;51.034;6.984;2023-04-24T06:06:29;4.47;;;3.58;;
11711;SDS011;5912;51.034;6.984;2023-04-24T06:08:54;4.72;;;3.20;;
11711;SDS011;5912;51.034;6.984;2023-04-24T06:11:20;5.65;;;3.22;;
11711;SDS011;5912;51.034;6.984;2023-04-24T06:13:46;4.65;;;3.10;;
11711;SDS011;5912;51.034;6.984;2023-04-24T06:16:11;8.27;;;3.00;;
11711;SDS011;5912;51.034;6.984;2023-04-24T06:18:36;4.93;;;3.40;;
11711;SDS011;5912;51.034;6.984;2023-04-24T06:21:01;3.47;;;2.80;;
11711;SDS011;5912;51.034;6.984;2023-04-24T06:23:27;4.00;;;3.20;;
11711;SDS011;5912;51.034;6.984;2023-04-24T06:25:52;3.97;;;3.08;;
11711;SDS011;5912;51.034;6.984;2023-04-24T06:28:18;4.45;;;3.08;;
11711;SDS011;5912;51.034;6.984;2023-04-24T06:30:43;3.53;;;2.47;;
11711;SDS011;5912;51.034;6.984;2023-04-24T06:33:09;4.63;;;2.05;;
11711;SDS011;5912;51.034;6.984;2023-04-24T06:35:35;2.47;;;1.90;;
11711;SDS011;5912;51.034;6.984;2023-04-24T06:38:01;2.53;;;1.80;;
11711;SDS011;5912;51.034;6.984;2023-04-24T06:40:26;2.95;;;1.70;;
11711;SDS011;5912;51.034;6.984;2023-04-24T06:42:51;2.92;;;1.60;;
11711;SDS011;5912;51.034;6.984;2023-04-24T06:45:16;1.30;;;1.20;;
11711;SDS011;5912;51.034;6.984;2023-04-24T06:47:42;2.17;;;1.52;;
11711;SDS011;5912;51.034;6.984;2023-04-24T06:50:07;2.10;;;1.30;;
11711;SDS011;5912;51.034;6.984;2023-04-24T06:52:33;1.45;;;1.35;;
11711;SDS011;5912;51.034;6.984;2023-04-24T06:55:01;1.48;;;1.20;;
11711;SDS011;5912;51.034;6.984;2023-04-24T06:57:28;2.67;;;1.38;;
11711;SDS011;5912;51.034;6.984;2023-04-24T06:59:53;1.60;;;1.33;;
11711;SDS011;5912;51.034;6.984;2023-04-24T07:02:19;1.58;;;1.25;;
11711;SDS011;5912;51.034;6.984;2023-04-24T07:04:44;2.20;;;1.35;;
11711;SDS011;5912;51.034;6.984;2023-04-24T07:07:12;1.10;;;1.00;;
11711;SDS011;5912;51.034;6.984;2023-04-24T07:09:39;1.73;;;1.20;;
11711;SDS011;5912;51.034;6.984;2023-04-24T07:12:07;1.30;;;1.20;;
11711;SDS011;5912;51.034;6.984;2023-04-24T07:14:33;1.50;;;1.40;;
11711;SDS011;5912;51.034;6.984;2023-04-24T07:16:58;2.03;;;1.58;;
11711;SDS011;5912;51.034;6.984;2023-04-24T07:19:23;1.35;;;1.25;;
11711;SDS011;5912;51.034;6.984;2023-04-24T07:21:49;2.35;;;1.33;;
11711;SDS011;5912;51.034;6.984;2023-04-24T07:24:14;1.70;;;1.40;;
11711;SDS011;5912;51.034;6.984;2023-04-24T07:26:40;2.60;;;1.52;;
11711;SDS011;5912;51.034;6.984;2023-04-24T07:29:05;3.97;;;1.73;;
11711;SDS011;5912;51.034;6.984;2023-04-24T07:31:31;2.05;;;1.70;;
11711;SDS011;5912;51.034;6.984;2023-04-24T07:33:56;3.55;;;1.90;;
11711;SDS011;5912;51.034;6.984;2023-04-24T07:36:23;2.05;;;1.83;;
11711;SDS011;5912;51.034;6.984;2023-04-24T07:38:49;2.22;;;1.75;;
11711;SDS011;5912;51.034;6.984;2023-04-24T07:41:14;1.70;;;1.60;;
11711;SDS011;5912;51.034;6.984;2023-04-24T07:43:40;2.35;;;1.70;;
11711;SDS011;5912;51.034;6.984;2023-04-24T07:46:06;1.30;;;1.10;;
11711;SDS011;5912;51.034;6.984;2023-04-24T07:48:32;2.03;;;1.20;;
11711;SDS011;5912;51.034;6.984;2023-04-24T07:50:57;1.42;;;1.30;;
11711;SDS011;5912;51.034;6.984;2023-04-24T07:53:22;1.33;;;1.23;;
11711;SDS011;5912;51.034;6.984;2023-04-24T07:55:48;1.45;;;1.15;;
11711;SDS011;5912;51.034;6.984;2023-04-24T07:58:13;1.20;;;1.10;;
11711;SDS011;5912;51.034;6.984;2023-04-24T08:00:38;2.80;;;1.20;;
11711;SDS011;5912;51.034;6.984;2023-04-24T08:03:04;1.83;;;1.27;;
11711;SDS011;5912;51.034;6.984;2023-04-24T08:05:29;1.88;;;1.20;;
11711;SDS011;5912;51.034;6.984;2023-04-24T08:07:55;2.47;;;1.08;;
11711;SDS011;5912;51.034;6.984;2023-04-24T08:10:20;1.95;;;1.13;;
11711;SDS011;5912;51.034;6.984;2023-04-24T08:12:49;2.03;;;1.08;;
11711;SDS011;5912;51.034;6.984;2023-04-24T08:15:14;1.17;;;0.90;;
11711;SDS011;5912;51.034;6.984;2023-04-24T08:17:40;1.30;;;1.20;;
11711;SDS011;5912;51.034;6.984;2023-04-24T08:20:05;1.95;;;1.25;;
11711;SDS011;5912;51.034;6.984;2023-04-24T08:22:35;1.73;;;1.15;;
11711;SDS011;5912;51.034;6.984;2023-04-24T08:25:00;1.83;;;1.20;;
11711;SDS011;5912;51.034;6.984;2023-04-24T08:27:26;1.65;;;1.10;;
11711;SDS011;5912;51.034;6.984;2023-04-24T08:29:56;1.63;;;1.20;;
11711;SDS011;5912;51.034;6.984;2023-04-24T08:32:22;1.67;;;1.25;;
11711;SDS011;5912;51.034;6.984;2023-04-24T08:34:47;1.40;;;1.23;;
11711;SDS011;5912;51.034;6.984;2023-04-24T08:37:12;3.17;;;1.10;;
11711;SDS011;5912;51.034;6.984;2023-04-24T08:39:38;2.92;;;1.45;;
11711;SDS011;5912;51.034;6.984;2023-04-24T08:42:04;1.98;;;1.15;;
11711;SDS011;5912;51.034;6.984;2023-04-24T08:44:32;1.73;;;1.30;;
11711;SDS011;5912;51.034;6.984;2023-04-24T08:46:59;1.80;;;1.37;;
11711;SDS011;5912;51.034;6.984;2023-04-24T08:49:26;1.70;;;1.50;;
11711;SDS011;5912;51.034;6.984;2023-04-24T08:51:53;2.67;;;1.40;;
11711;SDS011;5912;51.034;6.984;2023-04-24T08:54:18;1.67;;;1.57;;
11711;SDS011;5912;51.034;6.984;2023-04-24T08:56:44;1.63;;;1.50;;
11711;SDS011;5912;51.034;6.984;2023-04-24T08:59:12;2.60;;;1.90;;
11711;SDS011;5912;51.034;6.984;2023-04-24T09:01:38;2.70;;;1.90;;
11711;SDS011;5912;51.034;6.984;2023-04-24T09:04:05;2.53;;;2.00;;
11711;SDS011;5912;51.034;6.984;2023-04-24T09:06:32;2.40;;;2.20;;
11711;SDS011;5912;51.034;6.984;2023-04-24T09:09:00;2.27;;;2.07;;
11711;SDS011;5912;51.034;6.984;2023-04-24T09:11:26;4.07;;;2.10;;
11711;SDS011;5912;51.034;6.984;2023-04-24T09:13:53;3.83;;;2.30;;
11711;SDS011;5912;51.034;6.984;2023-04-24T09:16:19;3.70;;;2.40;;
11711;SDS011;5912;51.034;6.984;2023-04-24T09:18:45;2.63;;;2.42;;
11711;SDS011;5912;51.034;6.984;2023-04-24T09:21:11;3.67;;;2.90;;
11711;SDS011;5912;51.034;6.984;2023-04-24T09:23:36;2.28;;;2.08;;
11711;SDS011;5912;51.034;6.984;2023-04-24T09:26:03;3.93;;;2.63;;
11711;SDS011;5912;51.034;6.984;2023-04-24T09:28:32;2.47;;;2.27;;
11711;SDS011;5912;51.034;6.984;2023-04-24T09:31:03;3.65;;;2.58;;
11711;SDS011;5912;51.034;6.984;2023-04-24T09:33:29;3.50;;;2.43;;
11711;SDS011;5912;51.034;6.984;2023-04-24T09:35:55;3.50;;;2.77;;
11711;SDS011;5912;51.034;6.984;2023-04-24T09:38:30;3.92;;;2.72;;
11711;SDS011;5912;51.034;6.984;2023-04-24T09:41:00;5.60;;;2.73;;
11711;SDS011;5912;51.034;6.984;2023-04-24T09:43:30;5.17;;;3.00;;
11711;SDS011;5912;51.034;6.984;2023-04-24T09:45:56;5.70;;;2.95;;
11711;SDS011;5912;51.034;6.984;2023-04-24T09:48:33;5.60;;;3.25;;
11711;SDS011;5912;51.034;6.984;2023-04-24T09:51:00;4.33;;;2.80;;
11711;SDS011;5912;51.034;6.984;2023-04-24T09:53:28;3.25;;;2.95;;
11711;SDS011;5912;51.034;6.984;2023-04-24T09:55:55;5.22;;;3.10;;
11711;SDS011;5912;51.034;6.984;2023-04-24T09:58:28;4.13;;;2.95;;
11711;SDS011;5912;51.034;6.984;2023-04-24T10:00:54;4.47;;;3.50;;
11711;SDS011;5912;51.034;6.984;2023-04-24T10:03:21;4.20;;;2.72;;
11711;SDS011;5912;51.034;6.984;2023-04-24T10:05:49;6.43;;;3.95;;
11711;SDS011;5912;51.034;6.984;2023-04-24T10:08:17;4.65;;;3.78;;
11711;SDS011;5912;51.034;6.984;2023-04-24T10:10:43;5.20;;;3.88;;
11711;SDS011;5912;51.034;6.984;2023-04-24T10:13:10;5.82;;;3.83;;
11711;SDS011;5912;51.034;6.984;2023-04-24T10:15:36;4.50;;;3.53;;
11711;SDS011;5912;51.034;6.984;2023-04-24T10:18:02;6.20;;;3.88;;
11711;SDS011;5912;51.034;6.984;2023-04-24T10:20:30;4.70;;;3.70;;
11711;SDS011;5912;51.034;6.984;2023-04-24T10:22:56;5.65;;;3.70;;
11711;SDS011;5912;51.034;6.984;2023-04-24T10:25:24;7.75;;;3.60;;
11711;SDS011;5912;51.034;6.984;2023-04-24T10:27:54;4.88;;;2.85;;
11711;SDS011;5912;51.034;6.984;2023-04-24T10:30:24;5.28;;;2.88;;
11711;SDS011;5912;51.034;6.984;2023-04-24T10:32:51;4.40;;;2.85;;
11711;SDS011;5912;51.034;6.984;2023-04-24T10:35:16;4.57;;;3.17;;
11711;SDS011;5912;51.034;6.984;2023-04-24T10:37:44;4.15;;;2.70;;
11711;SDS011;5912;51.034;6.984;2023-04-24T10:40:11;5.78;;;3.17;;
11711;SDS011;5912;51.034;6.984;2023-04-24T10:42:41;4.35;;;2.90;;
11711;SDS011;5912;51.034;6.984;2023-04-24T10:45:15;3.95;;;2.70;;
11711;SDS011;5912;51.034;6.984;2023-04-24T10:47:42;7.18;;;3.00;;
11711;SDS011;5912;51.034;6.984;2023-04-24T10:50:12;4.15;;;2.53;;
11711;SDS011;5912;51.034;6.984;2023-04-24T10:52:44;4.43;;;2.47;;
11711;SDS011;5912;51.034;6.984;2023-04-24T10:55:13;4.97;;;2.78;;
11711;SDS011;5912;51.034;6.984;2023-04-24T10:57:40;4.75;;;2.25;;
11711;SDS011;5912;51.034;6.984;2023-04-24T11:00:26;5.53;;;2.67;;
11711;SDS011;5912;51.034;6.984;2023-04-24T11:02:52;4.45;;;2.20;;
11711;SDS011;5912;51.034;6.984;2023-04-24T11:05:18;4.82;;;1.90;;
11711;SDS011;5912;51.034;6.984;2023-04-24T11:10:47;4.43;;;2.42;;
11711;SDS011;5912;51.034;6.984;2023-04-24T11:13:21;6.72;;;2.00;;
11711;SDS011;5912;51.034;6.984;2023-04-24T11:16:11;3.75;;;2.00;;
11711;SDS011;5912;51.034;6.984;2023-04-24T11:18:40;5.45;;;1.88;;
11711;SDS011;5912;51.034;6.984;2023-04-24T11:21:15;4.43;;;2.10;;
11711;SDS011;5912;51.034;6.984;2023-04-24T11:23:42;3.10;;;1.70;;
11711;SDS011;5912;51.034;6.984;2023-04-24T11:26:11;5.95;;;2.38;;
11711;SDS011;5912;51.034;6.984;2023-04-24T11:28:48;3.70;;;1.67;;
11711;SDS011;5912;51.034;6.984;2023-04-24T11:34:05;6.38;;;1.70;;
11711;SDS011;5912;51.034;6.984;2023-04-24T11:36:32;3.97;;;1.80;;
11711;SDS011;5912;51.034;6.984;2023-04-24T11:38:57;4.63;;;2.30;;
11711;SDS011;5912;51.034;6.984;2023-04-24T11:41:23;4.20;;;1.85;;
11711;SDS011;5912;51.034;6.984;2023-04-24T11:43:48;8.98;;;2.28;;
11711;SDS011;5912;51.034;6.984;2023-04-24T11:46:16;3.72;;;1.98;;
11711;SDS011;5912;51.034;6.984;2023-04-24T11:48:44;7.43;;;2.95;;
11711;SDS011;5912;51.034;6.984;2023-04-24T11:51:11;4.47;;;2.80;;
11711;SDS011;5912;51.034;6.984;2023-04-24T11:53:37;6.75;;;2.33;;
11711;SDS011;5912;51.034;6.984;2023-04-24T11:56:03;5.07;;;2.33;;
11711;SDS011;5912;51.034;6.984;2023-04-24T11:58:34;7.68;;;2.55;;
11711;SDS011;5912;51.034;6.984;2023-04-24T12:01:00;5.65;;;2.17;;
11711;SDS011;5912;51.034;6.984;2023-04-24T12:03:26;4.00;;;2.20;;
11711;SDS011;5912;51.034;6.984;2023-04-24T12:05:51;5.03;;;2.40;;
11711;SDS011;5912;51.034;6.984;2023-04-24T12:08:26;3.13;;;1.60;;
11711;SDS011;5912;51.034;6.984;2023-04-24T12:10:56;4.13;;;2.03;;
11711;SDS011;5912;51.034;6.984;2023-04-24T12:13:21;5.07;;;2.58;;
11711;SDS011;5912;51.034;6.984;2023-04-24T12:15:46;6.93;;;2.70;;
11711;SDS011;5912;51.034;6.984;2023-04-24T12:18:12;3.70;;;2.25;;
11711;SDS011;5912;51.034;6.984;2023-04-24T12:20:40;6.22;;;2.35;;
11711;SDS011;5912;51.034;6.984;2023-04-24T12:23:05;7.25;;;2.45;;
11711;SDS011;5912;51.034;6.984;2023-04-24T12:25:31;4.57;;;2.33;;
11711;SDS011;5912;51.034;6.984;2023-04-24T12:30:29;4.65;;;1.98;;
11711;SDS011;5912;51.034;6.984;2023-04-24T12:32:57;7.30;;;2.42;;
11711;SDS011;5912;51.034;6.984;2023-04-24T12:35:24;4.30;;;2.00;;
11711;SDS011;5912;51.034;6.984;2023-04-24T12:37:50;6.18;;;2.10;;
11711;SDS011;5912;51.034;6.984;2023-04-24T12:40:16;5.82;;;2.40;;
11711;SDS011;5912;51.034;6.984;2023-04-24T12:42:44;3.97;;;2.20;;
11711;SDS011;5912;51.034;6.984;2023-04-24T12:45:14;4.03;;;1.92;;
11711;SDS011;5912;51.034;6.984;2023-04-24T12:47:41;4.50;;;2.00;;
11711;SDS011;5912;51.034;6.984;2023-04-24T12:50:08;4.70;;;1.77;;
11711;SDS011;5912;51.034;6.984;2023-04-24T12:52:34;3.97;;;1.80;;
11711;SDS011;5912;51.034;6.984;2023-04-24T12:55:00;3.72;;;2.00;;
11711;SDS011;5912;51.034;6.984;2023-04-24T12:57:26;4.00;;;1.85;;
11711;SDS011;5912;51.034;6.984;2023-04-24T12:59:54;5.65;;;2.00;;
11711;SDS011;5912;51.034;6.984;2023-04-24T13:02:21;3.55;;;1.80;;
11711;SDS011;5912;51.034;6.984;2023-04-24T13:04:47;4.95;;;2.00;;
11711;SDS011;5912;51.034;6.984;2023-04-24T13:07:13;4.32;;;1.90;;
11711;SDS011;5912;51.034;6.984;2023-04-24T13:09:39;3.95;;;1.85;;
11711;SDS011;5912;51.034;6.984;2023-04-24T13:12:05;4.15;;;1.92;;
11711;SDS011;5912;51.034;6.984;2023-04-24T13:14:33;5.47;;;2.20;;
11711;SDS011;5912;51.034;6.984;2023-04-24T13:16:58;4.50;;;2.10;;
11711;SDS011;5912;51.034;6.984;2023-04-24T13:19:24;3.33;;;2.20;;
11711;SDS011;5912;51.034;6.984;2023-04-24T13:21:54;2.65;;;1.83;;
11711;SDS011;5912;51.034;6.984;2023-04-24T13:24:21;4.40;;;2.00;;
11711;SDS011;5912;51.034;6.984;2023-04-24T13:26:49;4.57;;;2.10;;
11711;SDS011;5912;51.034;6.984;2023-04-24T13:29:15;3.45;;;1.85;;
11711;SDS011;5912;51.034;6.984;2023-04-24T13:31:40;3.47;;;1.80;;
11711;SDS011;5912;51.034;6.984;2023-04-24T13:34:06;3.03;;;1.70;;
11711;SDS011;5912;51.034;6.984;2023-04-24T13:36:31;5.85;;;1.90;;
11711;SDS011;5912;51.034;6.984;2023-04-24T13:38:56;2.90;;;1.80;;
11711;SDS011;5912;51.034;6.984;2023-04-24T13:41:22;3.30;;;1.50;;
11711;SDS011;5912;51.034;6.984;2023-04-24T13:43:47;2.80;;;1.50;;
11711;SDS011;5912;51.034;6.984;2023-04-24T13:46:12;3.90;;;1.77;;
11711;SDS011;5912;51.034;6.984;2023-04-24T13:48:38;5.35;;;1.83;;
11711;SDS011;5912;51.034;6.984;2023-04-24T13:51:03;3.88;;;1.65;;
11711;SDS011;5912;51.034;6.984;2023-04-24T13:53:28;3.53;;;1.90;;
11711;SDS011;5912;51.034;6.984;2023-04-24T13:55:53;4.35;;;1.83;;
11711;SDS011;5912;51.034;6.984;2023-04-24T13:58:19;6.78;;;2.22;;
11711;SDS011;5912;51.034;6.984;2023-04-24T14:00:45;7.00;;;2.22;;
11711;SDS011;5912;51.034;6.984;2023-04-24T14:03:10;3.33;;;1.80;;
11711;SDS011;5912;51.034;6.984;2023-04-24T14:05:36;7.00;;;1.75;;
11711;SDS011;5912;51.034;6.984;2023-04-24T14:08:03;5.00;;;1.90;;
11711;SDS011;5912;51.034;6.984;2023-04-24T14:10:28;5.03;;;2.35;;
11711;SDS011;5912;51.034;6.984;2023-04-24T14:12:53;3.85;;;1.90;;
11711;SDS011;5912;51.034;6.984;2023-04-24T14:15:19;3.63;;;2.10;;
11711;SDS011;5912;51.034;6.984;2023-04-24T14:17:44;5.13;;;1.80;;
11711;SDS011;5912;51.034;6.984;2023-04-24T14:20:10;5.88;;;1.92;;
11711;SDS011;5912;51.034;6.984;2023-04-24T14:22:37;3.30;;;1.73;;
11711;SDS011;5912;51.034;6.984;2023-04-24T14:25:02;3.15;;;1.80;;
11711;SDS011;5912;51.034;6.984;2023-04-24T14:27:28;7.15;;;2.45;;
11711;SDS011;5912;51.034;6.984;2023-04-24T14:29:53;3.58;;;2.08;;
11711;SDS011;5912;51.034;6.984;2023-04-24T14:32:19;5.82;;;2.00;;
11711;SDS011;5912;51.034;6.984;2023-04-24T14:34:44;2.58;;;1.73;;
11711;SDS011;5912;51.034;6.984;2023-04-24T14:37:09;4.85;;;1.70;;
11711;SDS011;5912;51.034;6.984;2023-04-24T14:39:34;3.13;;;1.70;;
11711;SDS011;5912;51.034;6.984;2023-04-24T14:42:00;4.22;;;1.80;;
11711;SDS011;5912;51.034;6.984;2023-04-24T14:44:26;2.63;;;1.45;;
11711;SDS011;5912;51.034;6.984;2023-04-24T14:50:13;3.72;;;1.92;;
11711;SDS011;5912;51.034;6.984;2023-04-24T14:52:38;4.53;;;2.00;;
11711;SDS011;5912;51.034;6.984;2023-04-24T14:55:04;4.57;;;1.95;;
11711;SDS011;5912;51.034;6.984;2023-04-24T14:57:31;2.80;;;2.45;;
11711;SDS011;5912;51.034;6.984;2023-04-24T14:59:57;4.07;;;2.30;;
11711;SDS011;5912;51.034;6.984;2023-04-24T15:02:22;3.55;;;1.85;;
11711;SDS011;5912;51.034;6.984;2023-04-24T15:04:48;4.03;;;1.67;;
11711;SDS011;5912;51.034;6.984;2023-04-24T15:07:13;2.85;;;1.83;;
11711;SDS011;5912;51.034;6.984;2023-04-24T15:09:38;2.97;;;1.50;;
11711;SDS011;5912;51.034;6.984;2023-04-24T15:12:04;3.33;;;1.77;;